Tiempo atmosférico en la estación meteorológica de Alcañiz, Teruel (320 m.)



Fecha
DESCASC
Temp. máxima en grados centígrados (hora)
DESCASC
Temp. mínima en grados centígrados (hora)
DESCASC
Temp. media en grados centígrados
DESCASC
Racha de viento máxima en m/sg (hora)
DESCASC
Velocidad máxima media en intervalos de 10 minutos(hora)
DESCASC
Precipitaciones diarias en mm
DESCASC
Precipitaciones de 00:00 a 06:00 en mm
DESCASC
Precipitaciones de 06:00 a 12:00 en mm
DESCASC
Precipitaciones de 12:00 a 18:00 en mm
DESCASC
Precipitaciones de 18:00 a 24:00 en mm
DESCASC
10-07-2020 32.7 (17:20) 16.2 (05:40) 24.5 9.44 (23:20) 5.28 (23:10) 0 0 0 0 0
09-07-2020 33 (18:20) 19.6 (07:00) 26.3 8.33 (05:20) 4.44 (01:30) 0 0 0 0 0
08-07-2020 32.9 (15:50) 14 (06:40) 23.5 7.78 (19:40) 4.44 (13:50) 0 0 0 0 0
07-07-2020 31.7 (18:40) 11.3 (07:00) 21.5 12.78 (17:30) 3.61 (10:00) 0 0 0 0 0
06-07-2020 31.1 (17:10) 16.7 (00:00) 23.9 10.83 (17:30) 5.83 (18:10) 0 0 0 0 0
05-07-2020 33.3 (17:40) 12.8 (06:50) 23 6.67 (16:10) 3.06 (10:50) 0 0 0 0 0
04-07-2020 30.5 (17:50) 12.1 (06:20) 21.3 8.33 (01:10) 4.44 (01:00) 0 0 0 0 0
03-07-2020 27.1 (17:30) 15.9 (03:10) 21.5 10.56 (00:10) 5.28 (00:10) 0 0 0 0 0
02-07-2020 31.9 (18:10) 16.9 (00:00) 24.4 13.06 (20:50) 6.67 (21:00) 0 0 0 0 0
01-07-2020 35.2 (17:00) 17.1 (00:00) 26.2 10 (21:00) 5 (21:10) 0 0 0 0 0
30-06-2020 32.2 (16:00) 16.8 (00:00) 24.5 8.06 (16:40) 5 (16:40) 0 0 0 0 0
29-06-2020 33.1 (17:40) 17.1 (00:00) 25.1 6.67 (23:59) 3.89 (20:20) 0 0 0 0 0
28-06-2020 33 (16:00) 17.1 (00:00) 25.1 6.39 (18:10) 3.61 (18:10) 0 0 0 0 0
27-06-2020 32.5 (18:00) 15.7 (00:00) 24.1 5.56 (12:00) 2.5 (11:50) 0 0 0 0 0
26-06-2020 33.9 (16:40) 16.5 (00:00) 25.2 10.28 (17:50) 4.44 (17:40) 0.1 0 0 0 0.1
25-06-2020 34.2 (17:20) 15.1 (00:00) 24.7 8.89 (16:40) 5 (17:00) 0 0 0 0 0
24-06-2020 31.9 (14:40) 16 (00:00) 23.9 14.44 (17:30) 6.67 (17:30) 0 0 0 0 0
23-06-2020 32.3 (16:30) 13.5 (00:00) 22.9 7.22 (18:20) 4.17 (19:10) 0 0 0 0 0
22-06-2020 31.4 (18:00) 17.5 (00:00) 24.4 10 (03:30) 5.28 (03:20) 0 0 0 0 0
21-06-2020 31.9 (18:10) 15.1 (00:00) 23.5 8.89 (23:20) 4.44 (23:40) 0 0 0 0 0
20-06-2020 29.7 (19:10) 14.7 (00:00) 22.2 6.39 (15:40) 3.61 (16:30) 0 0 0 0 0
19-06-2020 26.7 (18:10) 13.6 (00:00) 20.2 6.94 (14:40) 4.17 (19:50) 0 0 0 0 0
18-06-2020 23.7 (17:20) 13.3 (07:10) 18.5 6.94 (17:30) 3.06 (15:10) 1.8 1.4 0.4 0 0
17-06-2020 23.6 (19:50) 12 (00:00) 17.8 6.94 (10:10) 3.89 (10:20) 0 0 0 0 0
16-06-2020 22.4 (18:40) 14 (00:00) 18.2 6.67 (22:50) 3.89 (22:20) 7.7 0 4.1 3.3 0.3
15-06-2020 26.7 (16:20) 13.8 (00:00) 20.3 7.22 (23:10) 3.61 (23:10) 0 0 0 0 0

Gráficas

Temp. máximas Temp. mínimas Temp. medias Precipitaciones Rachas de viento máximas Velocidades máximas media en intervalos de 10 minutos

Datos horarios

Fecha y hora oficial Temperatura (ºC) Velocidad del viento (km/h) Dirección del viento Racha (km/h) Dirección de racha Precipitación (mm) Presión (hPa) Tendencia (hPa) Humedad (%)
2020-07-14 23:00:00 23 15 Noroeste 28 Noroeste 0 -- -- 39
2020-07-14 22:00:00 24.7 8 Noroeste 15 Oeste 0 -- -- 40
2020-07-14 21:00:00 26.6 3 Norte 17 Oeste 0 -- -- 39
2020-07-14 20:00:00 28.4 4 Noroeste 13 Norte 0 -- -- 32
2020-07-14 19:00:00 28.2 6 Noroeste 15 Norte 0 -- -- 31
2020-07-14 18:00:00 29.2 3 Oeste 19 Noroeste 0 -- -- 31
2020-07-14 17:00:00 28.6 7 Oeste 18 Oeste 0 -- -- 31
2020-07-14 16:00:00 27.5 8 Oeste 17 Oeste 0 -- -- 33
2020-07-14 15:00:00 25.7 5 Oeste 22 Oeste 0 -- -- 35
2020-07-14 14:00:00 24.9 7 Oeste 26 Oeste 0 -- -- 36
2020-07-14 13:00:00 22.8 10 Noroeste 28 Oeste 0 -- -- 40
2020-07-14 12:00:00 22.9 13 Oeste 27 Oeste 0 -- -- 43
2020-07-14 11:00:00 20.1 13 Oeste 26 Oeste 0 -- -- 44
2020-07-14 10:00:00 20 13 Oeste 27 Oeste 0 -- -- 46
2020-07-14 09:00:00 18.8 13 Oeste 26 Oeste 0 -- -- 47
2020-07-14 08:00:00 16 0 Calma 9 Sudoeste 0 -- -- 52
2020-07-14 07:00:00 15.8 5 Sudoeste 22 Sudoeste 0 -- -- 48
2020-07-14 06:00:00 15.3 5 Oeste 17 Oeste 0 -- -- 48
2020-07-14 05:00:00 15.7 2 Sur 14 Sudoeste 0 -- -- 47
2020-07-14 04:00:00 16.1 4 Sur 11 Sudeste 0 -- -- 47
2020-07-14 03:00:00 16.8 5 Sur 17 Oeste 0 -- -- 44
2020-07-14 02:00:00 18.4 13 Oeste 28 Oeste 0 -- -- 42
2020-07-14 01:00:00 20.3 13 Oeste 30 Oeste 0 -- -- 40
2020-07-14 00:00:00 22.5 12 Oeste 31 Noroeste 0 -- -- 37
2020-07-13 23:00:00 24.2 16 Oeste 36 Noroeste 0 -- -- 36
2020-07-13 22:00:00 25.5 14 Oeste 33 Noroeste 0 -- -- 37
2020-07-13 21:00:00 27.8 18 Noroeste 29 Noroeste 0 -- -- 35
2020-07-13 20:00:00 29.9 15 Noroeste 28 Oeste 0 -- -- 35
2020-07-13 19:00:00 31.1 12 Noroeste 26 Oeste 0 -- -- 35
2020-07-13 18:00:00 31.5 9 Noroeste 31 Oeste 0 -- -- 36
2020-07-13 17:00:00 31 11 Oeste 22 Oeste 0 -- -- 37
2020-07-13 16:00:00 31.3 2 Norte 19 Noroeste 0 -- -- 39
2020-07-13 15:00:00 29.2 7 Noroeste 36 Sudoeste 0 -- -- 42
2020-07-13 14:00:00 28.4 3 Noroeste 19 Noroeste 0 -- -- 45
2020-07-13 13:00:00 27.3 5 Noroeste 23 Oeste 0 -- -- 48
2020-07-13 12:00:00 25.4 8 Noroeste 22 Oeste 0 -- -- 51
2020-07-13 11:00:00 23.3 8 Oeste 24 Noroeste 0 -- -- 58
2020-07-13 10:00:00 22.5 11 Oeste 23 Oeste 0 -- -- 65
2020-07-13 09:00:00 20.9 11 Oeste 21 Noroeste 0 -- -- 71
2020-07-13 08:00:00 18.8 2 Sudoeste 6 Sudoeste 0 -- -- 84
2020-07-13 07:00:00 16.7 3 Sur 8 Sudoeste 0 -- -- 87
2020-07-13 06:00:00 16.7 0 Calma 8 Oeste 0 -- -- 84
2020-07-13 05:00:00 18.1 0 Calma 10 Noroeste 0 -- -- 78
2020-07-13 04:00:00 19.4 4 Noroeste 14 Noroeste 0 -- -- 75
2020-07-13 03:00:00 19.4 5 Oeste 13 Oeste 0 -- -- 89
2020-07-13 02:00:00 19.9 5 Oeste 12 Oeste 0 -- -- 84
2020-07-13 01:00:00 19.7 0 Calma 8 Norte 0 -- -- 84
2020-07-13 00:00:00 20.8 2 Nordeste 9 Este 0 -- -- 78
2020-07-12 23:00:00 21.5 3 Este 11 Nordeste 0 -- -- 74
2020-07-12 22:00:00 22.2 7 Este 10 Este 0 -- -- 67
2020-07-12 21:00:00 22.8 0 Calma 10 Sur 0 -- -- 66
2020-07-12 20:00:00 23.8 6 Sur 20 Sur 0 -- -- 59
2020-07-12 19:00:00 24.5 13 Sur 27 Sur 0 -- -- 56
2020-07-12 18:00:00 21 7 Sudeste 37 Sur 0.1 -- -- 72
2020-07-12 17:00:00 25.2 5 Sudoeste 14 Sudoeste 0 -- -- 56
2020-07-12 16:00:00 26.4 3 Sudoeste 14 Sur 0 -- -- 55
2020-07-12 15:00:00 25.9 0 Calma 12 Oeste 0 -- -- 62
2020-07-12 14:00:00 22.5 5 Oeste 21 Norte 0.4 -- -- 76
2020-07-12 13:00:00 22.2 14 Noroeste 36 Oeste 0.3 -- -- 77
2020-07-12 12:00:00 26.7 11 Noroeste 21 Oeste 0 -- -- 54
2020-07-12 11:00:00 24.8 5 Noroeste 14 Oeste 0 -- -- 63
2020-07-12 10:00:00 22.5 5 Noroeste 12 Noroeste 0 -- -- 76
2020-07-12 09:00:00 21 5 Sudoeste 11 Sudoeste 0 -- -- 84
2020-07-12 08:00:00 19 0 Calma 9 Sudoeste 0 -- -- 89
2020-07-12 07:00:00 17 5 Sudoeste 7 Sudoeste 0 -- -- 92
2020-07-12 06:00:00 17.3 0 Calma 9 Sudoeste 0 -- -- 87
2020-07-12 05:00:00 19 4 Oeste 10 Oeste 0 -- -- 85
2020-07-12 04:00:00 20 5 Nordeste 9 Norte 0 -- -- 76
2020-07-12 03:00:00 21.1 6 Este 14 Este 0 -- -- 71
2020-07-12 02:00:00 22.2 9 Este 16 Este 0 -- -- 69
2020-07-12 01:00:00 23.6 3 Nordeste 9 Este 0 -- -- 58
2020-07-12 00:00:00 24.4 2 Este 8 Este 0 -- -- 55
2020-07-11 23:00:00 26.3 3 Sudeste 10 Sur 0 -- -- 52
2020-07-11 22:00:00 28 5 Sudeste 17 Este 0 -- -- 48
2020-07-11 21:00:00 29.5 10 Este 31 Este 0 -- -- 46
2020-07-11 20:00:00 30.6 14 Este 23 Este 0 -- -- 43
2020-07-11 19:00:00 31.7 9 Norte 20 Norte 0 -- -- 38
2020-07-11 18:00:00 31.4 9 Nordeste 21 Nordeste 0 -- -- 38
2020-07-11 17:00:00 31.1 5 Nordeste 17 Norte 0 -- -- 39
2020-07-11 16:00:00 29.9 8 Nordeste 19 Este 0 -- -- 42
2020-07-11 15:00:00 28.9 4 Este 14 Este 0 -- -- 44
2020-07-11 14:00:00 27.1 4 Nordeste 14 Nordeste 0 -- -- 48
2020-07-11 13:00:00 26.4 0 Calma 16 Oeste 0 -- -- 52
2020-07-11 12:00:00 23.4 6 Noroeste 26 Oeste 0 -- -- 56
2020-07-11 11:00:00 21.7 8 Noroeste 20 Oeste 0 -- -- 62
2020-07-11 10:00:00 20.5 8 Oeste 21 Oeste 0 -- -- 65
2020-07-11 09:00:00 19 12 Oeste 21 Oeste 0 -- -- 70
2020-07-11 08:00:00 17.6 6 Sudoeste 13 Sudoeste 0 -- -- 76
2020-07-11 07:00:00 16.6 6 Sudoeste 10 Sudoeste 0 -- -- 80
2020-07-11 06:00:00 17 5 Sudoeste 14 Oeste 0 -- -- 78
2020-07-11 05:00:00 17.7 8 Oeste 18 Oeste 0 -- -- 77
2020-07-11 04:00:00 17.8 6 Oeste 19 Oeste 0 -- -- 75
2020-07-11 03:00:00 18.8 9 Oeste 17 Oeste 0 -- -- 72
2020-07-11 02:00:00 19.6 8 Oeste 23 Oeste 0 -- -- 70
2020-07-11 01:00:00 20.6 11 Oeste 37 Noroeste 0 -- -- 65
2020-07-11 00:00:00 21.8 17 Oeste 34 Oeste 0 -- -- 63
2020-07-10 23:00:00 24.6 15 Noroeste 34 Oeste 0 -- -- 53
2020-07-10 22:00:00 27.1 13 Noroeste 28 Noroeste 0 -- -- 46
2020-07-10 21:00:00 29 3 Este 17 Este 0 -- -- 36
2020-07-10 20:00:00 30.5 8 Nordeste 22 Este 0 -- -- 33
2020-07-10 19:00:00 31.5 10 Nordeste 17 Nordeste 0 -- -- 31
2020-07-10 18:00:00 32.2 8 Norte 21 Nordeste 0 -- -- 31
2020-07-10 17:00:00 31.9 10 Nordeste 29 Este 0 -- -- 34
2020-07-10 16:00:00 32 0 Calma 18 Norte 0 -- -- 38
2020-07-10 15:00:00 30.7 2 Sudoeste 23 Sur 0 -- -- 40
2020-07-10 14:00:00 29.2 3 Noroeste 14 Sudoeste 0 -- -- 46
2020-07-10 13:00:00 27.7 3 Noroeste 15 Oeste 0 -- -- 50
2020-07-10 12:00:00 26.1 6 Oeste 17 Oeste 0 -- -- 57
2020-07-10 11:00:00 24.9 6 Oeste 19 Oeste 0 -- -- 62
2020-07-10 10:00:00 22.8 9 Oeste 19 Sudoeste 0 -- -- 67
2020-07-10 09:00:00 20.7 3 Sudoeste 9 Oeste 0 -- -- 70
2020-07-10 08:00:00 17.6 5 Oeste 9 Oeste 0 -- -- 79
2020-07-10 07:00:00 16.6 3 Oeste 5 Noroeste 0 -- -- 81
2020-07-10 06:00:00 16.6 2 Sudoeste 5 Sur 0 -- -- 81
2020-07-10 05:00:00 17.2 0 Calma 4 Noroeste 0 -- -- 80
2020-07-10 04:00:00 17.6 2 Sudoeste 8 Sudoeste 0 -- -- 74
2020-07-10 03:00:00 18.9 3 Noroeste 5 Norte 0 -- -- 67
2020-07-10 02:00:00 20.1 0 Calma 5 Nordeste 0 -- -- 63
2020-07-10 01:00:00 21.3 0 Calma 6 Norte 0 -- -- 59
2020-07-10 00:00:00 23.5 0 Calma 25 Oeste 0 -- -- 53
2020-07-09 23:00:00 24.6 0 Calma 12 Nordeste 0 -- -- 63
2020-07-09 22:00:00 27 5 Este 14 Este 0 -- -- 51
2020-07-09 21:00:00 28.9 7 Nordeste 18 Nordeste 0 -- -- 46
2020-07-09 20:00:00 30.7 9 Nordeste 15 Norte 0 -- -- 40
2020-07-09 19:00:00 31.2 10 Este 17 Este 0 -- -- 39
2020-07-09 18:00:00 32.6 4 Noroeste 15 Noroeste 0 -- -- 35
2020-07-09 17:00:00 31.7 6 Noroeste 14 Noroeste 0 -- -- 39
2020-07-09 16:00:00 31.9 8 Noroeste 18 Noroeste 0 -- -- 38
2020-07-09 15:00:00 30 4 Sudoeste 13 Este 0 -- -- 44
2020-07-09 14:00:00 29.1 0 Calma 16 Oeste 0 -- -- 48
2020-07-09 13:00:00 27.1 7 Sudoeste 17 Sudoeste 0 -- -- 49
2020-07-09 12:00:00 26.6 2 Oeste 13 Sudoeste 0 -- -- 54
2020-07-09 11:00:00 26 0 Calma 12 Norte 0 -- -- 58
2020-07-09 10:00:00 24.8 6 Norte 12 Nordeste 0 -- -- 69
2020-07-09 09:00:00 23.1 0 Calma 8 Sudoeste 0 -- -- 76
2020-07-09 08:00:00 20.5 0 Calma 9 Oeste 0 -- -- 90
2020-07-09 07:00:00 19.9 0 Calma 11 Este 0 -- -- 90
2020-07-09 06:00:00 20.4 5 Este 30 Oeste 0 -- -- 90
2020-07-09 05:00:00 20.2 4 Oeste 11 Oeste 0 -- -- 87
2020-07-09 04:00:00 21.4 3 Nordeste 17 Este 0 -- -- 82
2020-07-09 03:00:00 22.6 13 Nordeste 24 Nordeste 0 -- -- 79
2020-07-09 02:00:00 23.9 9 Nordeste 24 Nordeste 0 -- -- 66
2020-07-09 01:00:00 24.7 11 Nordeste 25 Norte 0 -- -- 62
2020-07-09 00:00:00 26.6 0 Calma 16 Sur 0 -- -- 45
2020-07-08 23:00:00 26.7 7 Sur 15 Sur 0 -- -- 52
2020-07-08 22:00:00 24.6 0 Calma 10 Oeste 0 -- -- 67
2020-07-08 21:00:00 26.3 5 Sudoeste 28 Sudoeste 0 -- -- 53
2020-07-08 20:00:00 29 10 Sur 28 Sur 0 -- -- 54
2020-07-08 19:00:00 29.9 11 Nordeste 21 Este 0 -- -- 51
2020-07-08 18:00:00 31.3 11 Nordeste 21 Nordeste 0 -- -- 47
2020-07-08 17:00:00 31.7 10 Norte 21 Este 0 -- -- 46
2020-07-08 16:00:00 32.4 7 Nordeste 25 Este 0 -- -- 41
2020-07-08 15:00:00 30.7 13 Este 21 Este 0 -- -- 43
2020-07-08 14:00:00 28.7 13 Este 27 Este 0 -- -- 46
2020-07-08 13:00:00 26.7 3 Nordeste 21 Oeste 0 -- -- 49
2020-07-08 12:00:00 26.1 8 Nordeste 16 Nordeste 0 -- -- 50
2020-07-08 11:00:00 24.8 2 Noroeste 12 Oeste 0 -- -- 53
2020-07-08 10:00:00 22.3 0 Calma 6 Oeste 0 -- -- 58
2020-07-08 09:00:00 19.8 0 Calma -- -- 0 -- -- 62
2020-07-08 08:00:00 16.8 0 Calma 2 Norte 0 -- -- 67
2020-07-08 07:00:00 14.6 0 Calma 4 Sudoeste 0 -- -- 65
2020-07-08 06:00:00 14.4 0 Calma 4 Oeste 0 -- -- 63
2020-07-08 05:00:00 15.2 0 Calma 4 Noroeste 0 -- -- 59
2020-07-08 04:00:00 15.8 0 Calma 8 Oeste 0 -- -- 57
2020-07-08 03:00:00 16.9 0 Calma 4 Noroeste 0 -- -- 53
2020-07-08 02:00:00 17.1 2 Noroeste 11 Oeste 0 -- -- 50
2020-07-08 01:00:00 18.7 5 Oeste 12 Noroeste 0 -- -- 47
2020-07-08 00:00:00 19.3 3 Sudoeste 7 Sudoeste 0 -- -- 48
2020-07-07 23:00:00 22 0 Calma 3 Sudeste 0 -- -- 39
2020-07-07 22:00:00 25.1 0 Calma 4 Este 0 -- -- 31
2020-07-07 21:00:00 29.4 0 Calma 8 Norte 0 -- -- 30
2020-07-07 20:00:00 31.2 0 Calma 12 Noroeste 0 -- -- 24
2020-07-07 19:00:00 30.5 6 Norte 17 Noroeste 0 -- -- 25
2020-07-07 18:00:00 30.5 5 Noroeste 46 Noroeste 0 -- -- 27
2020-07-07 17:00:00 29.7 6 Noroeste 18 Noroeste 0 -- -- 30
2020-07-07 16:00:00 28.8 6 Noroeste 21 Noroeste 0 -- -- 33
2020-07-07 15:00:00 27.2 6 Noroeste 25 Oeste 0 -- -- 36
2020-07-07 14:00:00 25.5 9 Noroeste 23 Noroeste 0 -- -- 41
2020-07-07 13:00:00 23.9 10 Oeste 20 Sudoeste 0 -- -- 46
2020-07-07 12:00:00 21.6 6 Noroeste 22 Noroeste 0 -- -- 48
2020-07-07 11:00:00 20.1 9 Noroeste 20 Oeste 0 -- -- 51
2020-07-07 10:00:00 17.6 13 Oeste 24 Oeste 0 -- -- 55
2020-07-07 09:00:00 16.4 5 Oeste 12 Noroeste 0 -- -- 62
2020-07-07 08:00:00 14.3 0 Calma 7 Oeste 0 -- -- 74
2020-07-07 07:00:00 11.6 0 Calma 3 Sudoeste 0 -- -- 75
2020-07-07 06:00:00 13.3 3 Sudoeste 14 Noroeste 0 -- -- 67
2020-07-07 05:00:00 14.4 6 Noroeste 10 Noroeste 0 -- -- 68
2020-07-07 04:00:00 14.8 0 Calma 7 Noroeste 0 -- -- 68
2020-07-07 03:00:00 16 0 Calma 12 Noroeste 0 -- -- 66
2020-07-07 02:00:00 17.6 4 Sudoeste 17 Oeste 0 -- -- 63
2020-07-07 01:00:00 18 0 Calma 18 Oeste 0 -- -- 62
2020-07-07 00:00:00 19.9 9 Oeste 26 Oeste 0 -- -- 59
2020-07-06 23:00:00 21.1 13 Oeste 28 Oeste 0 -- -- 55
2020-07-06 22:00:00 22.5 14 Oeste 33 Noroeste 0 -- -- 53
2020-07-06 21:00:00 24.4 15 Noroeste 34 Noroeste 0 -- -- 47
2020-07-06 20:00:00 27 21 Noroeste 38 Oeste 0 -- -- 43
2020-07-06 19:00:00 29.4 15 Oeste 35 Noroeste 0 -- -- 40
2020-07-06 18:00:00 30.5 17 Noroeste 39 Noroeste 0 -- -- 41
2020-07-06 17:00:00 30.5 17 Noroeste 33 Noroeste 0 -- -- 42
2020-07-06 16:00:00 29.3 18 Noroeste 36 Noroeste 0 -- -- 44
2020-07-06 15:00:00 28.4 18 Noroeste 38 Oeste 0 -- -- 46
2020-07-06 14:00:00 28.1 14 Oeste 37 Oeste 0 -- -- 49
2020-07-06 13:00:00 27 14 Oeste 31 Oeste 0 -- -- 51
2020-07-06 12:00:00 25.2 17 Oeste 34 Noroeste 0 -- -- 54
2020-07-06 11:00:00 23.8 17 Oeste 30 Noroeste 0 -- -- 58
2020-07-06 10:00:00 22.6 15 Oeste 29 Oeste 0 -- -- 59
2020-07-06 09:00:00 21.7 12 Oeste 24 Sudoeste 0 -- -- 62
2020-07-06 08:00:00 19.9 8 Oeste 14 Oeste 0 -- -- 68
2020-07-06 07:00:00 17 0 Calma 3 Sur 0 -- -- 74
2020-07-06 06:00:00 17.5 2 Sudoeste 6 Oeste 0 -- -- 70
2020-07-06 05:00:00 18.3 3 Sudoeste 5 Sur 0 -- -- 67
2020-07-06 04:00:00 20 0 Calma 14 Oeste 0 -- -- 60
2020-07-06 03:00:00 20.5 3 Este 11 Sudoeste 0 -- -- 62
2020-07-06 02:00:00 21.7 4 Sudoeste 9 Oeste 0 -- -- 60
2020-07-06 01:00:00 20.8 0 Calma 6 Oeste 0 -- -- 55
2020-07-06 00:00:00 21.8 3 Sudoeste 11 Oeste 0 -- -- 52
2020-07-05 23:00:00 23.6 0 Calma 5 Sudoeste 0 -- -- 44
2020-07-05 22:00:00 27.3 0 Calma 6 Norte 0 -- -- 35
2020-07-05 21:00:00 30.8 4 Norte 13 Noroeste 0 -- -- 31
2020-07-05 20:00:00 32.3 9 Noroeste 20 Noroeste 0 -- -- 29
2020-07-05 19:00:00 32.5 6 Norte 22 Norte 0 -- -- 30
2020-07-05 18:00:00 32.9 9 Noroeste 24 Oeste 0 -- -- 30
2020-07-05 17:00:00 32.5 8 Noroeste 24 Oeste 0 -- -- 32
2020-07-05 16:00:00 31.4 7 Oeste 21 Noroeste 0 -- -- 34
2020-07-05 15:00:00 30.7 9 Oeste 22 Sudoeste 0 -- -- 36
2020-07-05 14:00:00 29.4 9 Noroeste 21 Sudoeste 0 -- -- 38
2020-07-05 13:00:00 28 5 Oeste 20 Oeste 0 -- -- 41
2020-07-05 12:00:00 26.7 8 Oeste 24 Noroeste 0 -- -- 43
2020-07-05 11:00:00 25.2 9 Noroeste 21 Noroeste 0 -- -- 45
2020-07-05 10:00:00 23.2 2 Noroeste 7 Oeste 0 -- -- 49
2020-07-05 09:00:00 20.1 3 Sur 10 Oeste 0 -- -- 56
2020-07-05 08:00:00 16.8 4 Sudoeste 10 Oeste 0 -- -- 64
2020-07-05 07:00:00 13.5 4 Oeste 8 Este 0 -- -- 70
2020-07-05 06:00:00 14.5 0 Calma 10 Sudoeste 0 -- -- 64
2020-07-05 05:00:00 15.3 4 Sur 8 Sudoeste 0 -- -- 60
2020-07-05 04:00:00 15.7 2 Sur 8 Sur 0 -- -- 59
2020-07-05 03:00:00 16.8 3 Sur 11 Sur 0 -- -- 55
2020-07-05 02:00:00 17.4 6 Sur 10 Sur 0 -- -- 54
2020-07-05 01:00:00 16.2 4 Sur 9 Oeste 0 -- -- 55
2020-07-05 00:00:00 17.8 0 Calma 4 Norte 0 -- -- 49
2020-07-04 23:00:00 20.3 0 Calma 5 Sur 0 -- -- 41
2020-07-04 22:00:00 22.9 3 Oeste 7 Oeste 0 -- -- 35
2020-07-04 21:00:00 28.1 0 Calma 14 Noroeste 0 -- -- 27
2020-07-04 20:00:00 29.1 10 Noroeste 18 Noroeste 0 -- -- 25
2020-07-04 19:00:00 30 9 Noroeste 22 Norte 0 -- -- 23
2020-07-04 18:00:00 29.8 7 Noroeste 27 Norte 0 -- -- 26
2020-07-04 17:00:00 29.8 8 Noroeste 25 Oeste 0 -- -- 28
2020-07-04 16:00:00 28.1 5 Noroeste 21 Oeste 0 -- -- 31
2020-07-04 15:00:00 27.7 6 Noroeste 27 Oeste 0 -- -- 32
2020-07-04 14:00:00 25.2 7 Noroeste 20 Norte 0 -- -- 36
2020-07-04 13:00:00 24.3 6 Noroeste 19 Noroeste 0 -- -- 39
2020-07-04 12:00:00 22.5 8 Noroeste 21 Noroeste 0 -- -- 44
2020-07-04 11:00:00 20.1 8 Oeste 19 Oeste 0 -- -- 50
2020-07-04 10:00:00 18.3 8 Noroeste 18 Oeste 0 -- -- 54
2020-07-04 09:00:00 17.2 4 Oeste 11 Oeste 0 -- -- 62
2020-07-04 08:00:00 14.7 2 Sudoeste 6 Sur 0 -- -- 71
2020-07-04 07:00:00 12.7 5 Sudoeste 10 Sudoeste 0 -- -- 72
2020-07-04 06:00:00 12.8 4 Sur 14 Oeste 0 -- -- 71
2020-07-04 05:00:00 13.1 2 Oeste 8 Oeste 0 -- -- 72
2020-07-04 04:00:00 14.4 3 Sudoeste 14 Sudoeste 0 -- -- 65
2020-07-04 03:00:00 15.7 6 Sudoeste 19 Oeste 0 -- -- 60
2020-07-04 02:00:00 17.3 8 Oeste 30 Noroeste 0 -- -- 56
2020-07-04 01:00:00 18.7 16 Noroeste 28 Noroeste 0 -- -- 51
2020-07-04 00:00:00 19.1 7 Oeste 22 Noroeste 0 -- -- 51
2020-07-03 23:00:00 20.2 10 Noroeste 21 Noroeste 0 -- -- 48
2020-07-03 22:00:00 21.4 7 Noroeste 19 Noroeste 0 -- -- 44
2020-07-03 21:00:00 23.5 12 Noroeste 26 Noroeste 0 -- -- 39
2020-07-03 20:00:00 25 14 Noroeste 30 Noroeste 0 -- -- 37
2020-07-03 19:00:00 25.9 15 Noroeste 31 Noroeste 0 -- -- 36
2020-07-03 18:00:00 26.6 13 Noroeste 32 Norte 0 -- -- 36
2020-07-03 17:00:00 26.3 14 Noroeste 28 Noroeste 0 -- -- 39
2020-07-03 16:00:00 26.1 11 Noroeste 27 Noroeste 0 -- -- 40
2020-07-03 15:00:00 24.9 17 Noroeste 36 Oeste 0 -- -- 42
2020-07-03 14:00:00 24.4 14 Oeste 35 Noroeste 0 -- -- 43
2020-07-03 13:00:00 23.1 17 Oeste 37 Noroeste 0 -- -- 45
2020-07-03 12:00:00 22.7 13 Oeste 34 Sudoeste 0 -- -- 48
2020-07-03 11:00:00 20.1 14 Oeste 31 Sudoeste 0 -- -- 55
2020-07-03 10:00:00 17.8 15 Noroeste 30 Noroeste 0 -- -- 59
2020-07-03 09:00:00 16.9 12 Oeste 26 Oeste 0 -- -- 63
2020-07-03 08:00:00 16.5 13 Oeste 26 Oeste 0 -- -- 64
2020-07-03 07:00:00 16.5 10 Oeste 23 Oeste 0 -- -- 66
2020-07-03 06:00:00 16.6 10 Oeste 26 Noroeste 0 -- -- 66
2020-07-03 05:00:00 16.6 13 Oeste 22 Sudoeste 0 -- -- 67
2020-07-03 04:00:00 16.4 9 Sudoeste 20 Oeste 0 -- -- 69
2020-07-03 03:00:00 16.2 10 Sudoeste 19 Oeste 0 -- -- 68
2020-07-03 02:00:00 17 9 Oeste 24 Oeste 0 -- -- 65
2020-07-03 01:00:00 18 10 Oeste 38 Oeste 0 -- -- 61
2020-07-03 00:00:00 19.3 17 Oeste 39 Sudoeste 0 -- -- 57
2020-07-02 23:00:00 20.9 18 Oeste 40 Oeste 0 -- -- 53
2020-07-02 22:00:00 22.6 20 Noroeste 42 Noroeste 0 -- -- 50
2020-07-02 21:00:00 24.9 24 Noroeste 47 Noroeste 0 -- -- 45
2020-07-02 20:00:00 29.1 17 Noroeste 35 Noroeste 0 -- -- 39
2020-07-02 19:00:00 31.2 8 Oeste 17 Noroeste 0 -- -- 38
2020-07-02 18:00:00 30.9 8 Oeste 20 Noroeste 0 -- -- 39
2020-07-02 17:00:00 29.9 6 Norte 16 Noroeste 0 -- -- 41
2020-07-02 16:00:00 29.9 8 Noroeste 19 Noroeste 0 -- -- 43
2020-07-02 15:00:00 29.1 10 Noroeste 22 Noroeste 0 -- -- 45
2020-07-02 14:00:00 27.7 5 Noroeste 19 Norte 0 -- -- 46
2020-07-02 13:00:00 27.4 6 Noroeste 17 Sudoeste 0 -- -- 48
2020-07-02 12:00:00 26.1 3 Norte 18 Oeste 0 -- -- 51
2020-07-02 11:00:00 23.9 5 Noroeste 16 Oeste 0 -- -- 56
2020-07-02 10:00:00 22.5 6 Noroeste 15 Noroeste 0 -- -- 62
2020-07-02 09:00:00 21.7 0 Calma 8 Sudoeste 0 -- -- 66
2020-07-02 08:00:00 19.3 2 Este 4 Este 0 -- -- 76
2020-07-02 07:00:00 17 0 Calma 7 Sudoeste 0 -- -- 83
2020-07-02 06:00:00 17.8 3 Sudoeste 7 Oeste 0 -- -- 78
2020-07-02 05:00:00 18.5 0 Calma 6 Oeste 0 -- -- 75
2020-07-02 04:00:00 20.1 4 Oeste 12 Oeste 0 -- -- 71
2020-07-02 03:00:00 21.3 8 Oeste 18 Sudoeste 0 -- -- 66
2020-07-02 02:00:00 22.4 5 Sudoeste 17 Oeste 0 -- -- 64
2020-07-02 01:00:00 23.4 4 Oeste 25 Oeste 0 -- -- 61
2020-07-02 00:00:00 24.7 7 Noroeste 24 Oeste 0 -- -- 58
2020-07-01 23:00:00 25.8 10 Noroeste 27 Oeste 0 -- -- 55
2020-07-01 22:00:00 27.5 4 Norte 35 Oeste 0 -- -- 49
2020-07-01 21:00:00 31.2 11 Oeste 36 Oeste 0 -- -- 37
2020-07-01 20:00:00 32.8 8 Este 18 Este 0 -- -- 34
2020-07-01 19:00:00 33.8 10 Nordeste 18 Este 0 -- -- 33
2020-07-01 18:00:00 34.2 9 Norte 28 Norte 0 -- -- 31
2020-07-01 17:00:00 34.2 5 Oeste 19 Norte 0 -- -- 34
2020-07-01 16:00:00 33.4 6 Norte 21 Noroeste 0 -- -- 36
2020-07-01 15:00:00 32.7 11 Este 22 Sudeste 0 -- -- 38
2020-07-01 14:00:00 31.2 11 Nordeste 24 Este 0 -- -- 42
2020-07-01 13:00:00 30.1 7 Norte 16 Nordeste 0 -- -- 47
2020-07-01 12:00:00 28.3 3 Norte 12 Nordeste 0 -- -- 49
2020-07-01 11:00:00 25.9 4 Sudoeste 9 Sur 0 -- -- 59
2020-07-01 10:00:00 23.7 3 Sudoeste 10 Sudoeste 0 -- -- 72
2020-07-01 09:00:00 21.2 2 Oeste 8 Oeste 0 -- -- 85
2020-07-01 08:00:00 18.9 4 Sudoeste 6 Sudoeste 0 -- -- 90
2020-07-01 07:00:00 17.3 0 Calma -- -- 0 -- -- 93
2020-07-01 06:00:00 18.1 0 Calma -- -- 0 -- -- 94
2020-07-01 05:00:00 18.7 0 Calma -- -- 0 -- -- 93
2020-07-01 04:00:00 18.9 0 Calma 8 Sudoeste 0 -- -- 92
2020-07-01 03:00:00 19.9 0 Calma 9 Norte 0 -- -- 87
2020-07-01 02:00:00 20.7 6 Norte 10 Noroeste 0 -- -- 84
2020-07-01 01:00:00 21.9 0 Calma 17 Noroeste 0 -- -- 80
2020-07-01 00:00:00 22.5 5 Nordeste 17 Este 0 -- -- 78
2020-06-30 23:00:00 23.4 2 Noroeste 17 Norte 0 -- -- 72
2020-06-30 22:00:00 26.1 3 Nordeste 17 Nordeste 0 -- -- 57
2020-06-30 21:00:00 29.9 4 Sudeste 17 Sudeste 0 -- -- 45
2020-06-30 20:00:00 30.8 8 Sudeste 22 Sur 0 -- -- 43
2020-06-30 19:00:00 30.6 9 Nordeste 26 Norte 0 -- -- 50
2020-06-30 18:00:00 30.9 14 Nordeste 29 Nordeste 0 -- -- 51
2020-06-30 17:00:00 31.1 17 Nordeste 29 Norte 0 -- -- 50
2020-06-30 16:00:00 32 10 Nordeste 25 Nordeste 0 -- -- 48
2020-06-30 15:00:00 30.9 10 Nordeste 23 Nordeste 0 -- -- 48
2020-06-30 14:00:00 29.7 9 Norte 21 Este 0 -- -- 50
2020-06-30 13:00:00 27.5 6 Este 18 Este 0 -- -- 51
2020-06-30 12:00:00 25.4 5 Este 13 Noroeste 0 -- -- 54
2020-06-30 11:00:00 24 2 Nordeste 9 Noroeste 0 -- -- 57
2020-06-30 10:00:00 22.3 2 Noroeste 10 Oeste 0 -- -- 60
2020-06-30 09:00:00 20.5 4 Noroeste 10 Noroeste 0 -- -- 68
2020-06-30 08:00:00 18.4 0 Calma 2 Nordeste 0 -- -- 85
2020-06-30 07:00:00 17.1 0 Calma 0 Calma 0 -- -- 86
2020-06-30 06:00:00 17.1 0 Calma 4 Sudoeste 0 -- -- 83
2020-06-30 05:00:00 17.9 0 Calma 4 Oeste 0 -- -- 78
2020-06-30 04:00:00 19 0 Calma 7 Oeste 0 -- -- 75
2020-06-30 03:00:00 20.3 2 Sudoeste 8 Noroeste 0 -- -- 70
2020-06-30 02:00:00 21.5 3 Noroeste 14 Oeste 0 -- -- 66
2020-06-30 01:00:00 22.7 6 Oeste 18 Noroeste 0 -- -- 63
2020-06-30 00:00:00 23.9 12 Noroeste 24 Noroeste 0 -- -- 61
2020-06-29 23:00:00 25.6 12 Norte 21 Noroeste 0 -- -- 70
2020-06-29 22:00:00 28.3 3 Sudeste 16 Este 0 -- -- 61
2020-06-29 21:00:00 29.3 9 Este 21 Este 0 -- -- 58
2020-06-29 20:00:00 31.3 7 Este 18 Este 0 -- -- 39
2020-06-29 19:00:00 32.1 6 Este 19 Este 0 -- -- 40
2020-06-29 18:00:00 32.5 2 Sur 18 Norte 0 -- -- 39
2020-06-29 17:00:00 31.8 6 Este 20 Norte 0 -- -- 41
2020-06-29 16:00:00 31.6 4 Nordeste 17 Norte 0 -- -- 42
2020-06-29 15:00:00 31 7 Noroeste 15 Este 0 -- -- 44
2020-06-29 14:00:00 28.7 5 Este 15 Este 0 -- -- 46
2020-06-29 13:00:00 27.6 6 Noroeste 18 Nordeste 0 -- -- 49
2020-06-29 12:00:00 26.1 5 Oeste 15 Noroeste 0 -- -- 53
2020-06-29 11:00:00 24.4 5 Noroeste 20 Noroeste 0 -- -- 57
2020-06-29 10:00:00 22.9 10 Noroeste 19 Oeste 0 -- -- 61
2020-06-29 09:00:00 22.1 7 Oeste 15 Oeste 0 -- -- 66
2020-06-29 08:00:00 19.6 4 Sur 8 Sudoeste 0 -- -- 78
2020-06-29 07:00:00 17.5 2 Sudoeste 4 Sudoeste 0 -- -- 85
2020-06-29 06:00:00 18.3 2 Sudoeste 8 Oeste 0 -- -- 80
2020-06-29 05:00:00 19.4 5 Sudoeste 8 Oeste 0 -- -- 78
2020-06-29 04:00:00 20.2 0 Calma 8 Noroeste 0 -- -- 74
2020-06-29 03:00:00 22.1 4 Noroeste 16 Noroeste 0 -- -- 70
2020-06-29 02:00:00 22.4 5 Oeste 13 Noroeste 0 -- -- 77
2020-06-29 01:00:00 23.3 2 Sur 4 Sudoeste 0 -- -- 72
2020-06-29 00:00:00 24.7 0 Calma 9 Sudoeste 0 -- -- 65
2020-06-28 23:00:00 26 6 Sudoeste 14 Sudoeste 0 -- -- 61
2020-06-28 22:00:00 27.8 5 Sur 15 Sudeste 0 -- -- 54
2020-06-28 21:00:00 29.7 5 Sudeste 17 Sur 0 -- -- 47
2020-06-28 20:00:00 31.1 6 Sudeste 16 Sudeste 0 -- -- 41
2020-06-28 19:00:00 31 10 Este 23 Este 0 -- -- 42
2020-06-28 18:00:00 31.6 7 Nordeste 20 Este 0 -- -- 38
2020-06-28 17:00:00 32.4 7 Noroeste 19 Norte 0 -- -- 37
2020-06-28 16:00:00 32.3 0 Calma 18 Nordeste 0 -- -- 39
2020-06-28 15:00:00 30.6 6 Nordeste 19 Nordeste 0 -- -- 42
2020-06-28 14:00:00 29.7 4 Norte 14 Noroeste 0 -- -- 46
2020-06-28 13:00:00 28.8 4 Norte 15 Oeste 0 -- -- 48
2020-06-28 12:00:00 26.9 4 Norte 15 Noroeste 0 -- -- 55
2020-06-28 11:00:00 25.3 5 Oeste 20 Noroeste 0 -- -- 61
2020-06-28 10:00:00 24 3 Oeste 10 Noroeste 0 -- -- 65
2020-06-28 09:00:00 22.2 0 Calma 9 Oeste 0 -- -- 76
2020-06-28 08:00:00 19.4 4 Sur 6 Sudoeste 0 -- -- 82
2020-06-28 07:00:00 17.5 2 Sur 4 Sudoeste 0 -- -- 87
2020-06-28 06:00:00 17.8 0 Calma 6 Oeste 0 -- -- 87
2020-06-28 05:00:00 19.2 0 Calma 6 Norte 0 -- -- 80
2020-06-28 04:00:00 20.3 2 Nordeste 9 Oeste 0 -- -- 73
2020-06-28 03:00:00 21.3 5 Oeste 10 Oeste 0 -- -- 70
2020-06-28 02:00:00 21.7 5 Sudoeste 9 Sudoeste 0 -- -- 69
2020-06-28 01:00:00 21.8 3 Sudoeste 7 Sudoeste 0 -- -- 68
2020-06-28 00:00:00 22.6 3 Sudoeste 6 Sudoeste 0 -- -- 59
2020-06-27 23:00:00 24.4 0 Calma 9 Sur 0 -- -- 44
2020-06-27 22:00:00 26.4 0 Calma 4 Nordeste 0 -- -- 36
2020-06-27 21:00:00 29.4 3 Nordeste 7 Nordeste 0 -- -- 33
2020-06-27 20:00:00 30.5 5 Nordeste 14 Norte 0 -- -- 31
2020-06-27 19:00:00 31.4 5 Noroeste 19 Noroeste 0 -- -- 30
2020-06-27 18:00:00 32 4 Oeste 17 Noroeste 0 -- -- 30
2020-06-27 17:00:00 31.3 3 Noroeste 15 Noroeste 0 -- -- 32
2020-06-27 16:00:00 29.8 5 Norte 19 Norte 0 -- -- 34
2020-06-27 15:00:00 28.8 4 Norte 18 Noroeste 0 -- -- 39
2020-06-27 14:00:00 28.1 6 Oeste 19 Oeste 0 -- -- 45
2020-06-27 13:00:00 27 8 Oeste 19 Noroeste 0 -- -- 47
2020-06-27 12:00:00 25.3 9 Noroeste 20 Noroeste 0 -- -- 49
2020-06-27 11:00:00 23.7 8 Noroeste 15 Oeste 0 -- -- 58
2020-06-27 10:00:00 22.1 6 Noroeste 12 Oeste 0 -- -- 63
2020-06-27 09:00:00 20.4 0 Calma 7 Sudoeste 0 -- -- 68
2020-06-27 08:00:00 17.1 4 Sudoeste 8 Sudoeste 0 -- -- 82
2020-06-27 07:00:00 15.9 3 Oeste 6 Sudoeste 0 -- -- 91
2020-06-27 06:00:00 15.8 0 Calma 4 Sudeste 0 -- -- 92
2020-06-27 05:00:00 16.4 0 Calma 8 Noroeste 0 -- -- 90
2020-06-27 04:00:00 17.1 0 Calma 10 Oeste 0 -- -- 79
2020-06-27 03:00:00 -- 0 Calma 7 Norte 0 -- -- --
2020-06-27 02:00:00 18.6 3 Sur 10 Sur 0 -- -- 74
2020-06-27 01:00:00 18.5 0 Calma 7 Sudoeste 0 -- -- 73
2020-06-27 00:00:00 18.6 0 Calma 10 Norte 0 -- -- 77
2020-06-26 23:00:00 20.8 7 Oeste 16 Sur 0 -- -- 64
2020-06-26 22:00:00 22.1 9 Sudeste 26 Sudeste 0.1 -- -- 61
2020-06-26 21:00:00 23 8 Oeste 18 Sudoeste 0 -- -- 59
2020-06-26 20:00:00 27.3 4 Sudeste 27 Sudeste 0 -- -- 34
2020-06-26 19:00:00 28 8 Sudeste 27 Sudeste 0 -- -- 32
2020-06-26 18:00:00 29.7 15 Sudeste 37 Este 0 -- -- 30
2020-06-26 17:00:00 33.2 13 Sudeste 28 Sur 0 -- -- 26
2020-06-26 16:00:00 33.1 12 Sudeste 27 Sur 0 -- -- 26
2020-06-26 15:00:00 32.6 11 Sudeste 32 Sudeste 0 -- -- 26
2020-06-26 14:00:00 31.7 12 Sudeste 24 Sur 0 -- -- 28
2020-06-26 13:00:00 31.6 3 Sur 17 Nordeste 0 -- -- 29
2020-06-26 12:00:00 28.6 4 Nordeste 16 Este 0 -- -- 37
2020-06-26 11:00:00 27.6 6 Este 14 Este 0 -- -- 38
2020-06-26 10:00:00 24.8 0 Calma 10 Sur 0 -- -- 43
2020-06-26 09:00:00 21.1 4 Sur 8 Sur 0 -- -- 51
2020-06-26 08:00:00 18.2 0 Calma 9 Sudeste 0 -- -- 62
2020-06-26 07:00:00 16.5 0 Calma 8 Sudeste 0 -- -- 67
2020-06-26 06:00:00 17.6 4 Este 10 Sur 0 -- -- 71
2020-06-26 05:00:00 16.5 4 Nordeste 8 Nordeste 0 -- -- 80
2020-06-26 04:00:00 17.5 0 Calma -- -- -- -- -- 79
2020-06-26 03:00:00 17.4 3 Nordeste 8 Sudoeste 0 -- -- 77
2020-06-26 02:00:00 18.2 7 Oeste 13 Sudoeste 0 -- -- 62
2020-06-26 01:00:00 20.6 5 Este 12 Norte 0 -- -- 51
2020-06-26 00:00:00 22.1 4 Nordeste 16 Este 0 -- -- 45
2020-06-25 23:00:00 23.8 10 Este 22 Este 0 -- -- 43
2020-06-25 22:00:00 25.4 13 Este 19 Este 0 -- -- 42
2020-06-25 21:00:00 26.7 10 Este 22 Este 0 -- -- 41
2020-06-25 20:00:00 27.9 12 Sudeste 24 Este 0 -- -- 39
2020-06-25 19:00:00 29.6 9 Sudeste 23 Sudeste 0 -- -- 37
2020-06-25 18:00:00 32 11 Sudeste 32 Sur 0 -- -- 35
2020-06-25 17:00:00 32.8 18 Nordeste 32 Nordeste 0 -- -- 39
2020-06-25 16:00:00 32.5 14 Nordeste 25 Este 0 -- -- 40
2020-06-25 15:00:00 32.3 10 Nordeste 26 Este 0 -- -- 39
2020-06-25 14:00:00 30.6 10 Nordeste 21 Este 0 -- -- 43
2020-06-25 13:00:00 28.8 10 Nordeste 20 Este 0 -- -- 47
2020-06-25 12:00:00 27.4 6 Nordeste 14 Sudeste 0 -- -- 46
2020-06-25 11:00:00 25.2 6 Este 10 Este 0 -- -- 50
2020-06-25 10:00:00 23.3 0 Calma 5 Noroeste 0 -- -- 59
2020-06-25 09:00:00 20.7 0 Calma 4 Oeste 0 -- -- 70
2020-06-25 08:00:00 18.1 0 Calma 4 Este 0 -- -- 83
2020-06-25 07:00:00 15.8 0 Calma 8 Oeste 0 -- -- 89
2020-06-25 06:00:00 16.5 2 Este 9 Este 0 -- -- 83
2020-06-25 05:00:00 17.1 3 Sudeste 9 Este 0 -- -- 80
2020-06-25 04:00:00 18.1 4 Este 10 Sudoeste 0 -- -- 78
2020-06-25 03:00:00 18.9 7 Sudoeste 15 Sudoeste 0 -- -- 74
2020-06-25 02:00:00 18.6 0 Calma 6 Sudoeste 0 -- -- 74
2020-06-25 01:00:00 18.9 0 Calma 6 Sudoeste 0 -- -- 74
2020-06-25 00:00:00 19.2 0 Calma 6 Sudoeste 0 -- -- 73
2020-06-24 23:00:00 21.6 0 Calma 19 Este 0 -- -- 62
2020-06-24 22:00:00 23.8 15 Este 36 Este 0 -- -- 54
2020-06-24 21:00:00 24.8 17 Este 26 Este 0 -- -- 45
2020-06-24 20:00:00 25.4 8 Este 45 Sur 0 -- -- 41
2020-06-24 19:00:00 26.7 21 Sudoeste 48 Sudoeste 0 -- -- 38
2020-06-24 18:00:00 25.8 22 Oeste 52 Oeste 0 -- -- 43
2020-06-24 17:00:00 25 15 Sudoeste 44 Sudoeste 0 -- -- 44
2020-06-24 16:00:00 29 2 Sudeste 10 Oeste 0 -- -- 47
2020-06-24 15:00:00 30.7 8 Este 17 Nordeste 0 -- -- 39
2020-06-24 14:00:00 30.6 6 Nordeste 18 Nordeste 0 -- -- 40
2020-06-24 13:00:00 29.3 8 Nordeste 18 Este 0 -- -- 43
2020-06-24 12:00:00 27.7 9 Nordeste 17 Este 0 -- -- 50
2020-06-24 11:00:00 26.2 6 Nordeste 13 Este 0 -- -- 56
2020-06-24 10:00:00 23.1 3 Este 13 Este 0 -- -- 67
2020-06-24 09:00:00 20.2 4 Sur 9 Sudoeste 0 -- -- 81
2020-06-24 08:00:00 18.1 5 Oeste 12 Sudoeste 0 -- -- 91
2020-06-24 07:00:00 16.5 2 Nordeste 5 Sudoeste 0 -- -- 94
2020-06-24 06:00:00 16.6 3 Sur 9 Sur 0 -- -- 93
2020-06-24 05:00:00 16.6 0 Calma 9 Sudoeste 0 -- -- 92
2020-06-24 04:00:00 17.7 4 Noroeste 8 Noroeste 0 -- -- 90
2020-06-24 03:00:00 18.3 0 Calma 5 Sudoeste 0 -- -- 84
2020-06-24 02:00:00 19.8 0 Calma 3 Nordeste 0 -- -- 77
2020-06-24 01:00:00 20.8 0 Calma 5 Norte 0 -- -- 72
2020-06-24 00:00:00 22.4 3 Este 11 Este 0 -- -- 65
2020-06-23 23:00:00 23.8 3 Nordeste 11 Este 0 -- -- 59
2020-06-23 22:00:00 25.3 5 Este 9 Este 0 -- -- 54
2020-06-23 21:00:00 27.5 4 Este 17 Sudeste 0 -- -- 47
2020-06-23 20:00:00 28.9 7 Sudeste 24 Este 0 -- -- 44
2020-06-23 19:00:00 30 15 Este 26 Este 0 -- -- 42
2020-06-23 18:00:00 31.9 9 Nordeste 22 Nordeste 0 -- -- 40
2020-06-23 17:00:00 32.2 8 Nordeste 23 Nordeste 0 -- -- 39
2020-06-23 16:00:00 31.9 9 Nordeste 22 Nordeste 0 -- -- 39
2020-06-23 15:00:00 30.8 13 Este 24 Este 0 -- -- 41
2020-06-23 14:00:00 29.5 9 Nordeste 21 Nordeste 0 -- -- 42
2020-06-23 13:00:00 27.5 9 Nordeste 18 Nordeste 0 -- -- 45
2020-06-23 12:00:00 25.9 8 Nordeste 17 Nordeste 0 -- -- 47
2020-06-23 11:00:00 24.9 7 Nordeste 14 Este 0 -- -- 52
2020-06-23 10:00:00 22.9 0 Calma 6 Nordeste 0 -- -- 55
2020-06-23 09:00:00 20.1 0 Calma 4 Oeste 0 -- -- 70
2020-06-23 08:00:00 16.8 0 Calma -- -- 0 -- -- 83
2020-06-23 07:00:00 13.9 0 Calma 6 Sudoeste 0 -- -- 89
2020-06-23 06:00:00 14.6 0 Calma 4 Oeste 0 -- -- 86
2020-06-23 05:00:00 14.7 4 Oeste 5 Oeste 0 -- -- 84
2020-06-23 04:00:00 15.7 0 Calma 5 Sudoeste 0 -- -- 78
2020-06-23 03:00:00 16.6 0 Calma 8 Oeste 0 -- -- 73
2020-06-23 02:00:00 18.1 6 Sudoeste 10 Sudoeste 0 -- -- 66
2020-06-23 01:00:00 18.5 4 Sudoeste 8 Oeste 0 -- -- 63
2020-06-23 00:00:00 19.5 4 Oeste 9 Sudoeste 0 -- -- 58
2020-06-22 23:00:00 21.3 0 Calma 5 Sur 0 -- -- 53
2020-06-22 22:00:00 23.9 0 Calma 5 Noroeste 0 -- -- 40
2020-06-22 21:00:00 29.7 2 Noroeste 8 Norte 0 -- -- 31
2020-06-22 20:00:00 29.9 4 Norte 15 Noroeste 0 -- -- 31
2020-06-22 19:00:00 30.7 2 Norte 17 Noroeste 0 -- -- 31
2020-06-22 18:00:00 31 6 Oeste 21 Oeste 0 -- -- 32
2020-06-22 17:00:00 29.9 3 Noroeste 19 Noroeste 0 -- -- 35
2020-06-22 16:00:00 29.2 9 Noroeste 24 Oeste 0 -- -- 38
2020-06-22 15:00:00 28.4 8 Oeste 19 Noroeste 0 -- -- 43
2020-06-22 14:00:00 26.7 8 Noroeste 22 Noroeste 0 -- -- 46
2020-06-22 13:00:00 25.9 8 Noroeste 21 Oeste 0 -- -- 49
2020-06-22 12:00:00 24.6 5 Norte 23 Noroeste 0 -- -- 52
2020-06-22 11:00:00 22.7 10 Noroeste 25 Noroeste 0 -- -- 55
2020-06-22 10:00:00 21.5 14 Noroeste 30 Oeste 0 -- -- 58
2020-06-22 09:00:00 20.6 12 Oeste 27 Oeste 0 -- -- 60
2020-06-22 08:00:00 19.3 9 Oeste 21 Oeste 0 -- -- 62
2020-06-22 07:00:00 17.6 10 Oeste 18 Oeste 0 -- -- 63
2020-06-22 06:00:00 18.2 9 Oeste 20 Sudoeste 0 -- -- 59
2020-06-22 05:00:00 18.9 10 Oeste 29 Sudoeste 0 -- -- 55
2020-06-22 04:00:00 19.5 14 Oeste 36 Oeste 0 -- -- 51
2020-06-22 03:00:00 20.3 16 Oeste 34 Oeste 0 -- -- 47
2020-06-22 02:00:00 20.9 8 Sudoeste 21 Oeste 0 -- -- 46
2020-06-22 01:00:00 21.6 12 Oeste 26 Oeste 0 -- -- 44
2020-06-22 00:00:00 23.1 12 Oeste 32 Oeste 0 -- -- 38
2020-06-21 23:00:00 24.7 14 Oeste 26 Oeste 0 -- -- 34
2020-06-21 22:00:00 25.9 9 Noroeste 21 Noroeste 0 -- -- 32
2020-06-21 21:00:00 28.2 11 Noroeste 21 Noroeste 0 -- -- 28
2020-06-21 20:00:00 30.1 12 Noroeste 24 Noroeste 0 -- -- 26
2020-06-21 19:00:00 30.9 10 Norte 24 Noroeste 0 -- -- 27
2020-06-21 18:00:00 31.7 11 Noroeste 27 Noroeste 0 -- -- 25
2020-06-21 17:00:00 31.1 13 Noroeste 29 Noroeste 0 -- -- 25
2020-06-21 16:00:00 30.5 10 Norte 27 Noroeste 0 -- -- 31
2020-06-21 15:00:00 29.6 9 Noroeste 20 Noroeste 0 -- -- 33
2020-06-21 14:00:00 28.1 6 Noroeste 20 Noroeste 0 -- -- 34
2020-06-21 13:00:00 27.3 4 Oeste 16 Oeste 0 -- -- 36
2020-06-21 12:00:00 25.6 6 Noroeste 19 Sudoeste 0 -- -- 38
2020-06-21 11:00:00 24 8 Oeste 18 Oeste 0 -- -- 42
2020-06-21 10:00:00 22.2 9 Oeste 17 Oeste 0 -- -- 46
2020-06-21 09:00:00 20.7 0 Calma 7 Sur 0 -- -- 70
2020-06-21 08:00:00 18.1 0 Calma 0 Calma 0 -- -- 83
2020-06-21 07:00:00 15.4 0 Calma 3 Sudoeste 0 -- -- 90
2020-06-21 06:00:00 15.7 0 Calma 5 Noroeste 0 -- -- 88
2020-06-21 05:00:00 16.4 0 Calma 4 Este 0 -- -- 86
2020-06-21 04:00:00 17.4 0 Calma 6 Oeste 0 -- -- 83
2020-06-21 03:00:00 18 6 Sudoeste 9 Oeste 0 -- -- 79
2020-06-21 02:00:00 19 3 Sur 7 Oeste 0 -- -- 73
2020-06-21 01:00:00 19.9 0 Calma 6 Oeste 0 -- -- 67
2020-06-21 00:00:00 20.8 3 Sudoeste 7 Sudoeste 0 -- -- 62
2020-06-20 23:00:00 22.2 5 Oeste 7 Sudoeste 0 -- -- 56
2020-06-20 22:00:00 24.7 0 Calma 7 Sur 0 -- -- 45
2020-06-20 21:00:00 27.7 3 Sur 9 Este 0 -- -- 40
2020-06-20 20:00:00 28.7 0 Calma 13 Nordeste 0 -- -- 35
2020-06-20 19:00:00 29.6 0 Calma 15 Norte 0 -- -- 35
2020-06-20 18:00:00 28.9 5 Norte 22 Este 0 -- -- 38
2020-06-20 17:00:00 28.3 8 Nordeste 23 Este 0 -- -- 44
2020-06-20 16:00:00 27.8 9 Nordeste 23 Este 0 -- -- 46
2020-06-20 15:00:00 26.7 8 Nordeste 17 Este 0 -- -- 50
2020-06-20 14:00:00 26.1 4 Oeste 13 Noroeste 0 -- -- 52
2020-06-20 13:00:00 24.1 3 Noroeste 10 Norte 0 -- -- 57
2020-06-20 12:00:00 23.1 3 Sudeste 13 Oeste 0 -- -- 62
2020-06-20 11:00:00 20.4 6 Oeste 14 Noroeste 0 -- -- 70
2020-06-20 10:00:00 19.4 8 Noroeste 18 Noroeste 0 -- -- 74
2020-06-20 09:00:00 18.2 9 Oeste 14 Oeste 0 -- -- 80
2020-06-20 08:00:00 17.1 6 Oeste 12 Oeste 0 -- -- 91
2020-06-20 07:00:00 16.8 6 Oeste 14 Oeste 0 -- -- 96
2020-06-20 06:00:00 15.8 3 Oeste 6 Norte 0 -- -- 95
2020-06-20 05:00:00 15.5 2 Sudoeste 7 Sudoeste 0 -- -- 93
2020-06-20 04:00:00 16 3 Este 7 Sudeste 0 -- -- 92
2020-06-20 03:00:00 16.5 5 Este 8 Este 0 -- -- 90
2020-06-20 02:00:00 16.9 0 Calma -- -- 0 -- -- 86
2020-06-20 01:00:00 18.1 0 Calma -- -- 0 -- -- 82
2020-06-20 00:00:00 19.2 0 Calma 6 Sudeste 0 -- -- 74
2020-06-19 23:00:00 20.6 2 Sur 14 Sur 0 -- -- 66
2020-06-19 22:00:00 21.7 5 Sudeste 19 Sur 0 -- -- 59
2020-06-19 21:00:00 23.4 6 Sudeste 23 Este 0 -- -- 52
2020-06-19 20:00:00 24.5 13 Este 23 Sudeste 0 -- -- 52
2020-06-19 19:00:00 25.8 3 Nordeste 15 Este 0 -- -- 49
2020-06-19 18:00:00 26.1 4 Sudoeste 15 Sudeste 0 -- -- 50
2020-06-19 17:00:00 24.5 7 Sudeste 23 Este 0 -- -- 53
2020-06-19 16:00:00 25.9 5 Norte 22 Este 0 -- -- 48
2020-06-19 15:00:00 25.5 5 Este 25 Sudeste 0 -- -- 50
2020-06-19 14:00:00 24.1 8 Este 21 Este 0 -- -- 54
2020-06-19 13:00:00 22 7 Nordeste 15 Nordeste 0 -- -- 60
2020-06-19 12:00:00 21.5 8 Nordeste 15 Sudeste 0 -- -- 64
2020-06-19 11:00:00 20 0 Calma 9 Noroeste 0 -- -- 64
2020-06-19 10:00:00 18 0 Calma 8 Oeste 0 -- -- 73
2020-06-19 09:00:00 15.9 4 Oeste 8 Oeste 0 -- -- 81
2020-06-19 08:00:00 15.8 0 Calma 9 Noroeste 0 -- -- 95
2020-06-19 07:00:00 15.2 5 Oeste 9 Sudoeste 0 -- -- 96
2020-06-19 06:00:00 14 3 Sudoeste 6 Sudoeste 0 -- -- 95
2020-06-19 05:00:00 13.9 3 Sudoeste 4 Sudoeste 0 -- -- 94
2020-06-19 04:00:00 14.7 3 Este 6 Este 0 -- -- 94
2020-06-19 03:00:00 15.2 0 Calma 5 Norte 0 -- -- 93
2020-06-19 02:00:00 16.4 0 Calma 3 Sudeste 0 -- -- 89
2020-06-19 01:00:00 17 0 Calma 4 Noroeste 0 -- -- 83
2020-06-19 00:00:00 18.4 0 Calma 8 Sur 0 -- -- 76
2020-06-18 23:00:00 19.2 3 Este 6 Sudeste 0 -- -- 74
2020-06-18 22:00:00 19.8 0 Calma 9 Sur 0 -- -- 68
2020-06-18 21:00:00 21.2 4 Este 14 Este 0 -- -- 64
2020-06-18 20:00:00 22.3 10 Este 19 Este 0 -- -- 59
2020-06-18 19:00:00 22.4 9 Este 19 Este 0 -- -- 56
2020-06-18 18:00:00 22.8 9 Nordeste 25 Nordeste 0 -- -- 54
2020-06-18 17:00:00 22.4 10 Este 17 Este 0 -- -- 55
2020-06-18 16:00:00 22.1 6 Nordeste 22 Norte 0 -- -- 57
2020-06-18 15:00:00 22.1 6 Nordeste 23 Norte 0 -- -- 57
2020-06-18 14:00:00 21.4 6 Este 19 Nordeste 0 -- -- 58
2020-06-18 13:00:00 21.1 3 Este 15 Este 0 -- -- 61
2020-06-18 12:00:00 19.1 5 Este 12 Nordeste 0 -- -- 66
2020-06-18 11:00:00 17.7 2 Norte 13 Este 0 -- -- 77
2020-06-18 10:00:00 15.9 7 Este 16 Este 0 -- -- 85
2020-06-18 09:00:00 14.6 2 Sur 11 Sur 0 -- -- 89
2020-06-18 08:00:00 13.7 2 Sudeste 9 Noroeste 0 -- -- 90
2020-06-18 07:00:00 13.4 4 Norte 12 Noroeste 0.4 -- -- 91
2020-06-18 06:00:00 13.9 0 Calma 6 Norte 0.8 -- -- 91
2020-06-18 05:00:00 14.4 4 Noroeste 9 Noroeste 0.2 -- -- 81
2020-06-18 04:00:00 15.2 2 Sudoeste 16 Noroeste 0.4 -- -- 82
2020-06-18 03:00:00 16.5 0 Calma 6 Sudoeste 0 -- -- 78
2020-06-18 02:00:00 17.1 3 Noroeste 9 Oeste 0 -- -- 74
2020-06-18 01:00:00 17.6 4 Sudoeste 9 Sur 0 -- -- 69
2020-06-18 00:00:00 18.3 4 Sudoeste 13 Sudoeste 0 -- -- 66
2020-06-17 23:00:00 18.7 2 Sur 9 Sudoeste 0 -- -- 58
2020-06-17 22:00:00 19.3 6 Sur 9 Sur 0 -- -- 51
2020-06-17 21:00:00 21.7 0 Calma 9 Norte 0 -- -- 43
2020-06-17 20:00:00 22.4 5 Noroeste 18 Noroeste 0 -- -- 41
2020-06-17 19:00:00 22.2 4 Norte 20 Norte 0 -- -- 42
2020-06-17 18:00:00 21.1 6 Norte 15 Noroeste 0 -- -- 45
2020-06-17 17:00:00 20.8 3 Noroeste 21 Norte 0 -- -- 47
2020-06-17 16:00:00 21 7 Noroeste 23 Oeste 0 -- -- 47
2020-06-17 15:00:00 21.1 9 Noroeste 22 Oeste 0 -- -- 47
2020-06-17 14:00:00 20.4 6 Noroeste 23 Noroeste 0 -- -- 50
2020-06-17 13:00:00 19.8 9 Oeste 22 Noroeste 0 -- -- 50
2020-06-17 12:00:00 19.4 6 Noroeste 24 Oeste 0 -- -- 55
2020-06-17 11:00:00 18.4 12 Oeste 25 Oeste 0 -- -- 59
2020-06-17 10:00:00 15.9 11 Oeste 24 Oeste 0 -- -- 65
2020-06-17 09:00:00 14.9 10 Oeste 22 Sudoeste 0 -- -- 68
2020-06-17 08:00:00 13.6 4 Sudoeste 9 Sudoeste 0 -- -- 81
2020-06-17 07:00:00 12.1 4 Sudoeste 12 Sudoeste 0 -- -- 83
2020-06-17 06:00:00 12.1 4 Sudoeste 17 Oeste 0 -- -- 80
2020-06-17 05:00:00 13.7 8 Oeste 18 Sudoeste 0 -- -- 75
2020-06-17 04:00:00 13.8 5 Oeste 14 Sudoeste 0 -- -- 78
2020-06-17 03:00:00 14.1 5 Sudoeste 11 Sudoeste 0 -- -- 79
2020-06-17 02:00:00 14 6 Sudoeste 12 Sudoeste 0 -- -- 81
2020-06-17 01:00:00 14.7 6 Sudoeste 16 Oeste 0 -- -- 78
2020-06-17 00:00:00 15.1 6 Oeste 19 Oeste 0 -- -- 77
2020-06-16 23:00:00 16.4 11 Noroeste 24 Oeste 0 -- -- 71
2020-06-16 22:00:00 18 9 Noroeste 21 Oeste 0 -- -- 73
2020-06-16 21:00:00 19.1 5 Noroeste 13 Nordeste 0.3 -- -- 67
2020-06-16 20:00:00 21.5 6 Nordeste 17 Nordeste 0 -- -- 54
2020-06-16 19:00:00 22.2 7 Este 13 Este 0 -- -- 51
2020-06-16 18:00:00 21.5 6 Este 11 Este 0 -- -- 52
2020-06-16 17:00:00 20.5 4 Este 13 Este 0 -- -- 58
2020-06-16 16:00:00 18.8 0 Calma 9 Sudoeste 0 -- -- 70
2020-06-16 15:00:00 16.5 4 Este 8 Sur 0 -- -- 88
2020-06-16 14:00:00 15.7 2 Sudeste 9 Sur 0.2 -- -- 92
2020-06-16 13:00:00 15.3 4 Sudeste 9 Sur 3.1 -- -- 95
2020-06-16 12:00:00 14.7 5 Noroeste 8 Noroeste 2 -- -- 93
2020-06-16 11:00:00 14.6 2 Sudoeste 6 Sudoeste 1.1 -- -- 93
2020-06-16 10:00:00 14.2 2 Oeste 10 Sudoeste 0.7 -- -- 94
2020-06-16 09:00:00 14.3 2 Noroeste 15 Noroeste 0.3 -- -- 92
2020-06-16 08:00:00 14.7 4 Oeste 9 Oeste 0 -- -- 89
2020-06-16 07:00:00 15 0 Calma 16 Norte 0 -- -- 85
2020-06-16 06:00:00 15.2 9 Noroeste 17 Noroeste 0 -- -- 83
2020-06-16 05:00:00 14.8 6 Oeste 9 Oeste 0 -- -- 86
2020-06-16 04:00:00 14.9 0 Calma 8 Oeste 0 -- -- 83
2020-06-16 03:00:00 15.3 0 Calma 6 Sudoeste 0 -- -- 79
2020-06-16 02:00:00 16.3 0 Calma 5 Sudoeste 0 -- -- 76
2020-06-16 01:00:00 16.9 0 Calma 6 Sudoeste 0 -- -- 72
2020-06-16 00:00:00 18.9 4 Sudoeste 26 Oeste 0 -- -- 63
2020-06-15 23:00:00 20.6 2 Oeste 14 Noroeste 0 -- -- 55
2020-06-15 22:00:00 22.1 7 Noroeste 17 Noroeste 0 -- -- 46
2020-06-15 21:00:00 24 9 Noroeste 19 Noroeste 0 -- -- 43
2020-06-15 20:00:00 25.8 0 Calma 10 Norte 0 -- -- 42
2020-06-15 19:00:00 25.8 5 Norte 15 Norte 0 -- -- 40
2020-06-15 18:00:00 25.7 10 Norte 23 Norte 0 -- -- 39
2020-06-15 17:00:00 25.8 8 Noroeste 21 Norte 0 -- -- 41
2020-06-15 16:00:00 25.4 2 Norte 20 Norte 0 -- -- 41
2020-06-15 15:00:00 24.9 8 Norte 19 Oeste 0 -- -- 43
2020-06-15 14:00:00 24.4 5 Norte 16 Norte 0 -- -- 43
2020-06-15 13:00:00 23.8 3 Oeste 15 Noroeste 0 -- -- 46
2020-06-15 12:00:00 22.1 0 Calma 17 Oeste 0 -- -- 50
2020-06-15 11:00:00 20.6 3 Noroeste 14 Oeste 0 -- -- 55
2020-06-15 10:00:00 19 5 Oeste 9 Oeste 0 -- -- 62
2020-06-15 09:00:00 17.2 0 Calma 5 Oeste 0 -- -- 71
2020-06-15 08:00:00 15.2 3 Sudoeste 6 Sudoeste 0 -- -- 78
2020-06-15 07:00:00 14.2 0 Calma 5 Sudoeste 0 -- -- 77
2020-06-15 06:00:00 14.2 2 Sudoeste 8 Sudoeste 0 -- -- 75
2020-06-15 05:00:00 14.9 4 Sudoeste 10 Sur 0 -- -- 70
2020-06-15 04:00:00 14.4 4 Sur 8 Sur 0 -- -- 70
2020-06-15 03:00:00 15.2 2 Sudoeste 10 Sudoeste 0 -- -- 67
2020-06-15 02:00:00 15.7 0 Calma 8 Sudoeste 0 -- -- 63
2020-06-15 01:00:00 18.4 5 Noroeste 13 Noroeste 0 -- -- 55
2020-06-15 00:00:00 19.7 4 Noroeste 9 Noroeste 0 -- -- 52